Time;durP1;ratioP1;P1;durP2;ratioP2;P2;SDS_P1;SDS_P2;PMS_P1;PMS_P2;Temp;Humidity;BMP_temperature;BMP_pressure;BME280_temperature;BME280_humidity;BME280_pressure;Samples;Min_cycle;Max_cycle;Signal;HPM_P1;HPM_P2
2022/05/25 00:00:06;;;;;;;4.32;3.92;;;;;;;;;;5080756;28;20035;-68
2022/05/25 00:02:36;;;;;;;4.43;4.03;;;;;;;;;;5081531;28;20048;-67
2022/05/25 00:05:03;;;;;;;4.45;3.92;;;;;;;;;;5080034;28;20043;-67
2022/05/25 00:07:28;;;;;;;4.63;4.22;;;;;;;;;;5080246;28;20914;-67
2022/05/25 00:09:53;;;;;;;6.10;4.57;;;;;;;;;;5080736;28;20040;-67
2022/05/25 00:12:21;;;;;;;5.80;4.85;;;;;;;;;;5080939;28;20378;-67
2022/05/25 00:14:48;;;;;;;5.43;4.93;;;;;;;;;;5080370;28;20488;-67
2022/05/25 00:17:13;;;;;;;8.27;4.57;;;;;;;;;;5080238;28;20036;-68
2022/05/25 00:22:22;;;;;;;6.22;4.30;;;;;;;;;;5080898;28;20047;-67
2022/05/25 00:24:48;;;;;;;6.53;5.88;;;;;;;;;;5080620;28;20054;-67
2022/05/25 00:27:14;;;;;;;14.40;6.55;;;;;;;;;;5079572;28;20036;-67
2022/05/25 00:29:39;;;;;;;7.25;6.47;;;;;;;;;;5079901;28;20540;-67
2022/05/25 00:32:07;;;;;;;7.90;5.45;;;;;;;;;;5080389;28;20040;-66
2022/05/25 00:34:32;;;;;;;9.82;5.78;;;;;;;;;;5080641;28;20058;-68
2022/05/25 00:36:58;;;;;;;6.32;5.63;;;;;;;;;;5061651;28;20399;-67
2022/05/25 00:39:24;;;;;;;5.97;5.22;;;;;;;;;;5080153;28;20448;-68
2022/05/25 00:41:50;;;;;;;7.28;5.63;;;;;;;;;;5080362;28;20098;-67
2022/05/25 00:44:16;;;;;;;12.48;6.05;;;;;;;;;;5080331;28;20063;-67
2022/05/25 00:46:42;;;;;;;7.68;5.93;;;;;;;;;;5080571;28;20130;-67
2022/05/25 00:49:22;;;;;;;7.68;5.85;;;;;;;;;;5079501;28;20043;-67
2022/05/25 00:51:53;;;;;;;8.77;5.78;;;;;;;;;;5079810;28;20040;-67
2022/05/25 00:54:27;;;;;;;5.83;5.30;;;;;;;;;;5080587;28;20447;-67
2022/05/25 00:56:55;;;;;;;6.18;5.30;;;;;;;;;;5080282;28;20282;-68
2022/05/25 00:59:26;;;;;;;5.90;5.25;;;;;;;;;;5061426;28;20133;-68
2022/05/25 01:01:52;;;;;;;6.07;4.63;;;;;;;;;;5078867;28;20044;-68
2022/05/25 01:04:19;;;;;;;9.27;6.90;;;;;;;;;;5084149;28;20028;-68
2022/05/25 01:07:04;;;;;;;8.82;6.20;;;;;;;;;;5083897;28;20024;-68
2022/05/25 01:09:47;;;;;;;12.82;7.45;;;;;;;;;;5084048;28;21007;-68
2022/05/25 01:12:55;;;;;;;10.90;6.13;;;;;;;;;;5057975;28;20036;-67
2022/05/25 01:15:53;;;;;;;16.45;7.35;;;;;;;;;;5053816;28;20040;-66
2022/05/25 01:18:18;;;;;;;8.70;6.95;;;;;;;;;;5083954;28;20036;-67
2022/05/25 01:20:55;;;;;;;9.77;7.22;;;;;;;;;;5082485;28;20047;-66
2022/05/25 01:23:34;;;;;;;14.13;7.88;;;;;;;;;;5083485;28;20417;-67
2022/05/25 01:26:32;;;;;;;9.50;7.13;;;;;;;;;;5083585;28;20067;-67
2022/05/25 01:29:08;;;;;;;12.02;6.38;;;;;;;;;;5082637;28;20051;-66
2022/05/25 01:31:46;;;;;;;6.30;5.70;;;;;;;;;;5082131;28;20032;-67
2022/05/25 01:34:40;;;;;;;6.40;5.80;;;;;;;;;;5064587;28;20050;-67
2022/05/25 01:37:28;;;;;;;5.43;4.90;;;;;;;;;;5083460;28;20416;-67
2022/05/25 01:40:00;;;;;;;8.23;5.95;;;;;;;;;;5083285;28;20045;-66
2022/05/25 01:42:32;;;;;;;7.60;5.13;;;;;;;;;;5083029;28;20046;-67
2022/05/25 01:45:02;;;;;;;7.93;5.38;;;;;;;;;;5082927;28;20040;-67
2022/05/25 01:47:30;;;;;;;9.60;5.50;;;;;;;;;;5083598;28;20035;-67
2022/05/25 01:50:21;;;;;;;7.95;6.13;;;;;;;;;;5083168;28;20032;-67
2022/05/25 01:52:53;;;;;;;9.95;5.97;;;;;;;;;;5083938;28;20445;-67
2022/05/25 01:55:24;;;;;;;7.97;5.93;;;;;;;;;;5081672;28;20036;-68
2022/05/25 01:57:54;;;;;;;6.43;5.78;;;;;;;;;;5083368;28;20044;-67
2022/05/25 02:00:26;;;;;;;6.95;5.63;;;;;;;;;;5082503;28;20047;-67
2022/05/25 02:05:36;;;;;;;8.38;6.13;;;;;;;;;;5081854;28;20142;-65
2022/05/25 02:08:07;;;;;;;8.35;6.03;;;;;;;;;;5083161;28;20515;-67
2022/05/25 02:10:54;;;;;;;9.93;5.90;;;;;;;;;;5082748;28;20046;-68
2022/05/25 02:13:43;;;;;;;6.35;5.40;;;;;;;;;;5082512;28;20286;-66
2022/05/25 02:16:16;;;;;;;7.10;6.25;;;;;;;;;;5081166;28;20040;-67
2022/05/25 02:18:52;;;;;;;5.82;5.25;;;;;;;;;;5082701;28;20070;-68
2022/05/25 02:21:27;;;;;;;6.03;5.43;;;;;;;;;;5082209;28;20071;-67
2022/05/25 02:23:58;;;;;;;8.88;5.50;;;;;;;;;;5082917;28;20043;-68
2022/05/25 02:26:28;;;;;;;6.07;4.90;;;;;;;;;;5081274;28;20039;-67
2022/05/25 02:28:56;;;;;;;6.22;5.15;;;;;;;;;;5082880;28;20040;-68
2022/05/25 02:31:26;;;;;;;7.78;5.43;;;;;;;;;;5082460;28;20169;-68
2022/05/25 02:33:56;;;;;;;5.90;5.30;;;;;;;;;;5083157;28;20031;-67
2022/05/25 02:36:23;;;;;;;11.15;6.10;;;;;;;;;;5082052;28;20602;-67
2022/05/25 02:38:49;;;;;;;8.48;6.28;;;;;;;;;;5081405;28;20043;-68
2022/05/25 02:41:26;;;;;;;6.68;5.80;;;;;;;;;;5081662;28;20040;-68
2022/05/25 02:43:52;;;;;;;8.35;5.50;;;;;;;;;;5082811;28;20040;-67
2022/05/25 02:46:18;;;;;;;6.15;5.55;;;;;;;;;;5082309;28;20093;-67
2022/05/25 02:48:43;;;;;;;9.00;6.30;;;;;;;;;;5080921;28;20954;-68
2022/05/25 02:51:09;;;;;;;8.45;5.70;;;;;;;;;;5081552;28;20036;-67
2022/05/25 02:53:34;;;;;;;6.95;5.53;;;;;;;;;;5081149;28;20055;-66
2022/05/25 02:56:02;;;;;;;6.20;5.57;;;;;;;;;;5079906;28;21090;-67
2022/05/25 02:58:27;;;;;;;6.82;5.47;;;;;;;;;;5081375;28;20070;-68
2022/05/25 03:00:54;;;;;;;6.63;4.68;;;;;;;;;;5080803;28;20130;-67
2022/05/25 03:03:20;;;;;;;5.55;5.07;;;;;;;;;;5081990;28;20089;-68
2022/05/25 03:05:45;;;;;;;6.35;5.20;;;;;;;;;;5081778;28;20043;-68
2022/05/25 03:08:11;;;;;;;5.82;5.05;;;;;;;;;;5081246;28;20032;-66
2022/05/25 03:10:36;;;;;;;6.97;5.03;;;;;;;;;;5080622;28;20048;-66
2022/05/25 03:13:05;;;;;;;5.30;4.80;;;;;;;;;;5077715;28;20046;-67
2022/05/25 03:15:30;;;;;;;7.15;4.35;;;;;;;;;;5063501;28;20128;-67
2022/05/25 03:17:55;;;;;;;5.15;4.65;;;;;;;;;;5063957;28;20674;-68
2022/05/25 03:20:21;;;;;;;6.50;4.47;;;;;;;;;;5080301;28;20485;-67
2022/05/25 03:22:46;;;;;;;4.85;4.30;;;;;;;;;;5077056;28;20046;-65
2022/05/25 03:25:13;;;;;;;4.60;3.92;;;;;;;;;;5080340;28;20032;-67
2022/05/25 03:27:39;;;;;;;4.78;3.97;;;;;;;;;;5081678;28;20040;-67
2022/05/25 03:30:08;;;;;;;4.78;4.28;;;;;;;;;;5080352;28;20518;-68
2022/05/25 03:32:34;;;;;;;5.55;3.90;;;;;;;;;;5080597;28;20035;-68
2022/05/25 03:35:00;;;;;;;4.47;4.05;;;;;;;;;;5081149;28;20044;-68
2022/05/25 03:37:27;;;;;;;4.15;3.85;;;;;;;;;;5081680;28;20044;-67
2022/05/25 03:39:52;;;;;;;4.47;3.42;;;;;;;;;;5081297;28;20130;-68
2022/05/25 03:42:19;;;;;;;3.88;3.53;;;;;;;;;;5080717;28;20052;-67
2022/05/25 03:44:45;;;;;;;3.70;3.28;;;;;;;;;;5080710;28;20060;-67
2022/05/25 03:47:11;;;;;;;3.95;3.05;;;;;;;;;;5081094;28;20060;-67
2022/05/25 03:49:36;;;;;;;3.45;3.15;;;;;;;;;;5081724;28;20523;-68
2022/05/25 03:52:04;;;;;;;6.00;3.03;;;;;;;;;;5079848;28;20119;-68
2022/05/25 03:54:30;;;;;;;3.20;2.90;;;;;;;;;;5080475;28;20028;-68
2022/05/25 03:56:57;;;;;;;2.60;2.40;;;;;;;;;;5080910;28;20040;-68
2022/05/25 03:59:24;;;;;;;2.40;2.20;;;;;;;;;;5081067;28;20028;-67
2022/05/25 04:01:50;;;;;;;3.00;2.45;;;;;;;;;;5079693;28;20044;-68
2022/05/25 04:04:16;;;;;;;4.10;2.80;;;;;;;;;;5080972;28;20043;-66
2022/05/25 04:06:42;;;;;;;3.83;2.42;;;;;;;;;;5079620;28;20131;-67
2022/05/25 04:09:09;;;;;;;3.15;2.42;;;;;;;;;;5075687;28;20039;-68
2022/05/25 04:11:35;;;;;;;7.03;2.75;;;;;;;;;;5078691;28;20420;-67
2022/05/25 04:14:01;;;;;;;5.90;3.05;;;;;;;;;;5079290;28;20070;-68
2022/05/25 04:16:27;;;;;;;6.55;2.60;;;;;;;;;;5079749;28;20075;-69
2022/05/25 04:18:52;;;;;;;4.28;2.83;;;;;;;;;;5079677;28;20040;-68
2022/05/25 04:21:17;;;;;;;5.88;2.85;;;;;;;;;;5080071;28;20040;-68
2022/05/25 04:23:43;;;;;;;5.30;2.92;;;;;;;;;;5079264;28;20036;-68
2022/05/25 04:26:09;;;;;;;3.92;3.17;;;;;;;;;;5080560;28;20036;-69
2022/05/25 04:28:34;;;;;;;5.40;3.10;;;;;;;;;;5079640;28;20040;-71
2022/05/25 04:31:01;;;;;;;4.95;4.05;;;;;;;;;;5079691;28;20028;-70
2022/05/25 04:33:29;;;;;;;6.70;4.05;;;;;;;;;;5080047;28;20036;-69
2022/05/25 04:35:55;;;;;;;4.00;3.60;;;;;;;;;;5079855;28;20047;-69
2022/05/25 04:38:21;;;;;;;3.90;3.50;;;;;;;;;;5082398;28;20372;-69
2022/05/25 04:40:46;;;;;;;4.25;3.85;;;;;;;;;;5084329;28;20483;-70
2022/05/25 04:43:19;;;;;;;6.88;4.35;;;;;;;;;;5084879;28;20391;-68
2022/05/25 04:45:46;;;;;;;5.47;3.67;;;;;;;;;;5083690;28;20036;-69
2022/05/25 04:48:16;;;;;;;6.57;4.20;;;;;;;;;;5084448;28;20040;-70
2022/05/25 04:50:44;;;;;;;8.18;4.10;;;;;;;;;;5083341;28;20047;-69
2022/05/25 04:53:12;;;;;;;6.32;4.25;;;;;;;;;;5084538;28;20503;-70
2022/05/25 04:58:32;;;;;;;7.38;4.60;;;;;;;;;;5084177;28;21052;-70
2022/05/25 05:00:57;;;;;;;7.13;4.90;;;;;;;;;;5082557;28;20036;-69
2022/05/25 05:03:24;;;;;;;7.65;4.97;;;;;;;;;;5084678;28;20028;-70
2022/05/25 05:05:50;;;;;;;8.57;5.07;;;;;;;;;;5083489;28;20043;-69
2022/05/25 05:08:16;;;;;;;6.53;5.43;;;;;;;;;;5084029;28;20082;-70
2022/05/25 05:10:42;;;;;;;8.50;5.45;;;;;;;;;;5082211;28;20032;-69
2022/05/25 05:13:08;;;;;;;7.20;5.68;;;;;;;;;;5083067;28;20042;-70
2022/05/25 05:15:40;;;;;;;12.27;5.40;;;;;;;;;;5083438;28;20071;-69
2022/05/25 05:18:05;;;;;;;8.82;5.78;;;;;;;;;;5081588;28;20152;-70
2022/05/25 05:20:48;;;;;;;7.40;5.22;;;;;;;;;;5080694;28;20055;-69
2022/05/25 05:23:14;;;;;;;6.97;5.43;;;;;;;;;;5081612;28;20047;-70
2022/05/25 05:25:39;;;;;;;8.50;6.13;;;;;;;;;;5082549;28;20085;-74
2022/05/25 05:28:15;;;;;;;7.68;5.72;;;;;;;;;;5082130;28;20039;-70
2022/05/25 05:30:53;;;;;;;6.82;5.38;;;;;;;;;;5081812;28;20092;-71
2022/05/25 05:33:20;;;;;;;6.13;4.72;;;;;;;;;;5083553;28;20396;-71
2022/05/25 05:35:49;;;;;;;8.35;4.45;;;;;;;;;;5083480;28;20800;-68
2022/05/25 05:38:17;;;;;;;6.07;4.60;;;;;;;;;;5083408;28;20142;-72
2022/05/25 05:40:43;;;;;;;6.63;4.68;;;;;;;;;;5082335;28;20399;-68
2022/05/25 05:43:09;;;;;;;5.55;4.68;;;;;;;;;;5084177;28;20040;-70
2022/05/25 05:45:39;;;;;;;7.10;5.30;;;;;;;;;;5082136;28;20051;-68
2022/05/25 05:48:08;;;;;;;5.63;4.93;;;;;;;;;;5082058;28;20113;-68
2022/05/25 05:50:38;;;;;;;6.50;4.95;;;;;;;;;;5081527;28;20039;-67
2022/05/25 05:53:05;;;;;;;8.02;5.05;;;;;;;;;;5082939;28;20047;-70
2022/05/25 05:55:31;;;;;;;10.00;5.63;;;;;;;;;;5081758;28;20443;-69
2022/05/25 05:57:56;;;;;;;6.22;5.20;;;;;;;;;;5082852;28;20043;-69
2022/05/25 06:00:22;;;;;;;7.70;5.53;;;;;;;;;;5082143;28;20040;-69
2022/05/25 06:02:47;;;;;;;7.43;5.75;;;;;;;;;;5083206;28;20036;-69
2022/05/25 06:05:13;;;;;;;9.70;6.00;;;;;;;;;;5083417;28;20759;-69
2022/05/25 06:07:39;;;;;;;10.68;6.55;;;;;;;;;;5082281;28;20024;-69
2022/05/25 06:10:06;;;;;;;7.38;6.05;;;;;;;;;;5082607;28;20048;-69
2022/05/25 06:12:32;;;;;;;6.13;5.53;;;;;;;;;;5082421;28;20580;-69
2022/05/25 06:14:58;;;;;;;6.97;5.53;;;;;;;;;;5083197;28;20036;-69
2022/05/25 06:20:08;;;;;;;7.30;6.00;;;;;;;;;;5082336;28;20028;-69
2022/05/25 06:22:34;;;;;;;4.22;3.83;;;;;;;;;;5082316;28;20031;-69
2022/05/25 06:25:00;;;;;;;6.13;4.30;;;;;;;;;;5082796;28;20092;-69
2022/05/25 06:27:26;;;;;;;4.07;3.65;;;;;;;;;;5082608;28;20032;-69
2022/05/25 06:29:52;;;;;;;7.00;4.32;;;;;;;;;;5082151;28;21019;-68
2022/05/25 06:32:21;;;;;;;10.82;4.57;;;;;;;;;;5081124;28;21102;-70
2022/05/25 06:34:50;;;;;;;6.18;4.95;;;;;;;;;;5082429;28;20036;-69
2022/05/25 06:37:19;;;;;;;9.23;4.97;;;;;;;;;;5082393;28;20066;-68
2022/05/25 06:39:44;;;;;;;7.53;6.00;;;;;;;;;;5082063;28;20382;-69
2022/05/25 06:42:10;;;;;;;7.35;5.40;;;;;;;;;;5080736;28;20050;-68
2022/05/25 06:44:36;;;;;;;6.30;5.38;;;;;;;;;;5082298;28;20036;-69
2022/05/25 06:47:02;;;;;;;10.65;5.50;;;;;;;;;;5082396;28;20114;-68
2022/05/25 06:49:28;;;;;;;5.88;5.28;;;;;;;;;;5082352;28;20050;-69
2022/05/25 06:51:53;;;;;;;7.47;5.25;;;;;;;;;;5081043;28;20032;-69
2022/05/25 06:54:19;;;;;;;12.02;5.97;;;;;;;;;;5081727;28;20043;-69
2022/05/25 06:56:45;;;;;;;9.18;5.10;;;;;;;;;;5082172;28;20067;-68
2022/05/25 06:59:11;;;;;;;7.55;5.10;;;;;;;;;;5082205;28;20035;-68
2022/05/25 07:01:38;;;;;;;6.47;4.82;;;;;;;;;;5080132;28;20155;-69
2022/05/25 07:04:04;;;;;;;6.93;4.55;;;;;;;;;;5081298;28;20404;-66
2022/05/25 07:06:30;;;;;;;6.40;4.40;;;;;;;;;;5082518;28;20068;-66
2022/05/25 07:08:56;;;;;;;6.95;4.47;;;;;;;;;;5082205;28;20962;-68
2022/05/25 07:11:23;;;;;;;4.25;3.85;;;;;;;;;;5081506;28;20035;-69
2022/05/25 07:13:50;;;;;;;4.68;3.92;;;;;;;;;;5080892;28;20074;-68
2022/05/25 07:16:18;;;;;;;7.15;3.70;;;;;;;;;;5081569;28;20856;-67
2022/05/25 07:18:45;;;;;;;4.95;3.75;;;;;;;;;;5080080;28;20036;-68
2022/05/25 07:21:13;;;;;;;5.85;3.60;;;;;;;;;;5080069;28;20035;-67
2022/05/25 07:23:40;;;;;;;4.95;3.63;;;;;;;;;;5079519;28;20039;-68
2022/05/25 07:26:07;;;;;;;5.07;3.78;;;;;;;;;;5079157;28;20035;-67
2022/05/25 07:28:36;;;;;;;6.40;3.88;;;;;;;;;;5080089;28;20035;-67
2022/05/25 07:31:26;;;;;;;5.78;3.30;;;;;;;;;;5079319;28;20120;-67
2022/05/25 07:34:14;;;;;;;4.00;3.60;;;;;;;;;;5080928;28;20082;-66
2022/05/25 07:36:41;;;;;;;4.10;3.70;;;;;;;;;;5080786;28;20032;-68
2022/05/25 07:39:11;;;;;;;3.15;2.85;;;;;;;;;;5081832;28;20398;-67
2022/05/25 07:41:41;;;;;;;2.45;2.25;;;;;;;;;;5081270;28;20067;-68
2022/05/25 07:44:10;;;;;;;2.65;2.30;;;;;;;;;;5081946;28;20139;-68
2022/05/25 07:46:36;;;;;;;2.90;2.70;;;;;;;;;;5080116;28;20050;-68
2022/05/25 07:49:02;;;;;;;3.83;2.20;;;;;;;;;;5081073;28;20044;-66
2022/05/25 07:51:28;;;;;;;6.25;2.33;;;;;;;;;;5080796;28;20097;-69
2022/05/25 07:53:58;;;;;;;1.83;1.73;;;;;;;;;;5081298;28;20043;-68
2022/05/25 07:56:33;;;;;;;2.05;1.80;;;;;;;;;;5079524;28;20118;-70
2022/05/25 07:58:59;;;;;;;2.58;2.22;;;;;;;;;;5081515;28;20254;-69
2022/05/25 08:06:59;;;;;;;1.40;1.30;;;;;;;;;;5081007;28;20040;-69
2022/05/25 08:09:27;;;;;;;1.30;1.13;;;;;;;;;;5080721;28;20042;-69
2022/05/25 08:11:53;;;;;;;0.90;0.90;;;;;;;;;;5080587;28;20134;-69
2022/05/25 08:14:21;;;;;;;2.67;1.02;;;;;;;;;;5081083;28;20062;-69
2022/05/25 08:16:46;;;;;;;2.85;1.60;;;;;;;;;;5081316;28;20043;-70
2022/05/25 08:19:11;;;;;;;1.80;1.42;;;;;;;;;;5079061;28;20047;-69
2022/05/25 08:21:37;;;;;;;1.60;1.17;;;;;;;;;;5080457;28;20039;-69
2022/05/25 08:24:03;;;;;;;3.95;1.30;;;;;;;;;;5080510;28;20139;-69
2022/05/25 08:26:29;;;;;;;1.75;1.30;;;;;;;;;;5081050;28;20122;-69
2022/05/25 08:28:54;;;;;;;2.47;1.38;;;;;;;;;;5080061;28;20032;-69
2022/05/25 08:31:20;;;;;;;1.67;1.33;;;;;;;;;;5079134;28;20059;-70
2022/05/25 08:33:45;;;;;;;1.52;1.30;;;;;;;;;;5080768;28;20141;-70
2022/05/25 08:36:10;;;;;;;1.48;1.35;;;;;;;;;;5080991;28;20047;-68
2022/05/25 08:38:36;;;;;;;1.40;1.30;;;;;;;;;;5080840;28;20412;-70
2022/05/25 08:41:02;;;;;;;1.55;1.45;;;;;;;;;;5078715;28;20040;-70
2022/05/25 08:43:34;;;;;;;1.75;1.23;;;;;;;;;;5075276;28;20126;-70
2022/05/25 08:46:03;;;;;;;1.80;1.70;;;;;;;;;;5080753;28;20040;-70
2022/05/25 08:48:31;;;;;;;1.40;1.30;;;;;;;;;;5062395;28;20035;-70
2022/05/25 08:51:04;;;;;;;1.27;1.17;;;;;;;;;;5079392;28;20043;-69
2022/05/25 08:53:30;;;;;;;1.42;1.17;;;;;;;;;;5079699;28;20469;-70
2022/05/25 08:56:32;;;;;;;1.58;1.20;;;;;;;;;;5079582;28;20036;-70
2022/05/25 08:59:28;;;;;;;2.85;1.17;;;;;;;;;;5058628;28;20098;-71
2022/05/25 09:01:58;;;;;;;0.95;0.93;;;;;;;;;;5078467;28;20051;-71
2022/05/25 09:04:26;;;;;;;1.08;1.08;;;;;;;;;;5079143;28;20805;-70
2022/05/25 09:07:11;;;;;;;1.48;1.10;;;;;;;;;;5080420;28;20492;-70
2022/05/25 09:09:39;;;;;;;2.42;0.93;;;;;;;;;;5062685;28;20040;-72
2022/05/25 09:12:22;;;;;;;1.10;1.00;;;;;;;;;;5079288;28;20550;-70
2022/05/25 09:14:58;;;;;;;2.47;1.20;;;;;;;;;;5079691;28;20040;-70
2022/05/25 09:17:29;;;;;;;3.38;1.55;;;;;;;;;;5079885;28;20053;-70
2022/05/25 09:19:56;;;;;;;2.15;1.40;;;;;;;;;;5079868;28;20582;-70
2022/05/25 09:22:24;;;;;;;1.30;1.20;;;;;;;;;;5078368;28;20028;-70
2022/05/25 09:24:52;;;;;;;1.55;1.00;;;;;;;;;;5082115;28;20036;-71
2022/05/25 09:27:24;;;;;;;2.40;1.20;;;;;;;;;;5083461;28;20036;-70
2022/05/25 09:29:55;;;;;;;1.42;1.05;;;;;;;;;;5083871;28;20037;-70
2022/05/25 09:32:42;;;;;;;1.85;0.80;;;;;;;;;;5082777;28;20027;-70
2022/05/25 09:35:38;;;;;;;2.55;0.77;;;;;;;;;;5082963;28;20400;-70
2022/05/25 09:38:35;;;;;;;1.10;1.00;;;;;;;;;;5083434;28;20047;-67
2022/05/25 09:41:05;;;;;;;1.63;0.90;;;;;;;;;;5056937;28;20181;-68
2022/05/25 09:43:31;;;;;;;1.00;0.85;;;;;;;;;;5081083;28;20028;-67
2022/05/25 09:46:08;;;;;;;0.90;0.82;;;;;;;;;;5080804;28;20036;-67
2022/05/25 09:48:46;;;;;;;2.08;0.75;;;;;;;;;;5080779;28;20048;-67
2022/05/25 09:51:43;;;;;;;2.78;1.13;;;;;;;;;;5062288;28;20127;-68
2022/05/25 09:54:32;;;;;;;2.17;0.90;;;;;;;;;;5062481;28;20185;-68
2022/05/25 09:57:30;;;;;;;1.02;0.85;;;;;;;;;;5068048;28;20051;-67
2022/05/25 10:00:08;;;;;;;0.95;0.85;;;;;;;;;;5051148;28;20078;-69
2022/05/25 10:02:43;;;;;;;0.88;0.80;;;;;;;;;;5081105;28;20544;-68
2022/05/25 10:05:23;;;;;;;2.03;0.82;;;;;;;;;;5080777;28;20081;-68
2022/05/25 10:08:14;;;;;;;1.25;0.70;;;;;;;;;;5081338;28;20123;-69
2022/05/25 10:10:55;;;;;;;3.33;0.90;;;;;;;;;;5081006;28;20184;-68
2022/05/25 10:13:23;;;;;;;2.80;0.73;;;;;;;;;;5081867;28;20028;-69
2022/05/25 10:15:51;;;;;;;1.52;0.80;;;;;;;;;;5082127;28;21067;-68
2022/05/25 10:18:35;;;;;;;1.00;0.80;;;;;;;;;;5083275;28;20601;-68
2022/05/25 10:21:02;;;;;;;2.25;0.90;;;;;;;;;;5081705;28;20047;-67
2022/05/25 10:23:27;;;;;;;0.77;0.77;;;;;;;;;;5082563;28;21126;-66
2022/05/25 10:25:55;;;;;;;5.75;0.88;;;;;;;;;;5082219;28;20046;-68
2022/05/25 10:28:26;;;;;;;1.45;0.80;;;;;;;;;;5082945;28;20123;-69
2022/05/25 10:37:08;;;;;;;2.42;1.15;;;;;;;;;;5081583;28;20118;-69
2022/05/25 10:39:40;;;;;;;1.23;1.02;;;;;;;;;;5082468;28;20553;-69
2022/05/25 10:42:29;;;;;;;2.00;1.10;;;;;;;;;;5081283;28;20412;-69
2022/05/25 10:45:10;;;;;;;2.75;1.25;;;;;;;;;;5081920;28;20093;-69
2022/05/25 10:47:57;;;;;;;2.17;1.00;;;;;;;;;;5081700;28;20127;-69
2022/05/25 10:50:43;;;;;;;0.93;0.90;;;;;;;;;;5082636;28;20039;-68
2022/05/25 10:53:14;;;;;;;2.10;1.10;;;;;;;;;;5081411;28;20063;-69
2022/05/25 10:56:17;;;;;;;1.30;1.13;;;;;;;;;;5082001;28;20056;-69
2022/05/25 10:59:00;;;;;;;1.52;0.90;;;;;;;;;;5041775;28;20055;-69
2022/05/25 11:01:41;;;;;;;1.65;1.00;;;;;;;;;;5081525;28;20119;-69
2022/05/25 11:04:42;;;;;;;2.67;0.63;;;;;;;;;;5081335;28;20064;-69
2022/05/25 11:07:16;;;;;;;1.55;0.80;;;;;;;;;;5027887;28;20056;-69
2022/05/25 11:09:54;;;;;;;1.27;0.70;;;;;;;;;;5081592;28;20036;-70
2022/05/25 11:12:51;;;;;;;1.83;0.70;;;;;;;;;;5081593;28;20869;-69
2022/05/25 11:15:41;;;;;;;1.60;0.80;;;;;;;;;;5080675;28;20032;-68
2022/05/25 11:18:37;;;;;;;2.45;0.70;;;;;;;;;;5081798;28;20024;-69
2022/05/25 11:21:27;;;;;;;0.60;0.60;;;;;;;;;;5080203;28;20044;-68
2022/05/25 11:23:56;;;;;;;0.90;0.80;;;;;;;;;;5081563;28;20046;-68
2022/05/25 11:27:02;;;;;;;1.55;0.63;;;;;;;;;;5080579;28;20036;-69
2022/05/25 11:29:34;;;;;;;1.52;0.73;;;;;;;;;;5081133;28;20408;-68
2022/05/25 11:32:21;;;;;;;2.85;0.70;;;;;;;;;;5080394;28;20028;-68
2022/05/25 11:35:17;;;;;;;1.50;0.70;;;;;;;;;;5081108;28;20097;-67
2022/05/25 11:38:01;;;;;;;0.50;0.50;;;;;;;;;;5080284;28;20856;-67
2022/05/25 11:40:44;;;;;;;1.17;0.70;;;;;;;;;;5079881;28;20240;-66
2022/05/25 11:43:37;;;;;;;0.40;0.40;;;;;;;;;;5080442;28;20071;-67
2022/05/25 11:46:36;;;;;;;0.60;0.60;;;;;;;;;;5079869;28;20584;-67
2022/05/25 11:49:18;;;;;;;1.45;0.50;;;;;;;;;;5079198;28;20090;-67
2022/05/25 11:52:22;;;;;;;1.02;0.70;;;;;;;;;;5074430;28;20401;-67
2022/05/25 11:55:19;;;;;;;2.70;0.57;;;;;;;;;;5076924;28;20374;-69
2022/05/25 11:57:56;;;;;;;0.50;0.50;;;;;;;;;;5079037;28;20472;-69
2022/05/25 12:00:44;;;;;;;2.05;0.65;;;;;;;;;;5078481;28;20085;-68
2022/05/25 12:03:12;;;;;;;2.20;0.60;;;;;;;;;;5077824;28;20556;-67
2022/05/25 12:06:04;;;;;;;0.80;0.60;;;;;;;;;;5077697;28;20142;-68
2022/05/25 12:08:48;;;;;;;0.52;0.50;;;;;;;;;;5079188;28;20048;-68
2022/05/25 12:11:42;;;;;;;1.13;0.68;;;;;;;;;;5077991;28;20043;-67
2022/05/25 12:14:36;;;;;;;0.60;0.57;;;;;;;;;;5079230;28;20048;-67
2022/05/25 12:17:28;;;;;;;0.60;0.50;;;;;;;;;;5079761;28;20032;-68
2022/05/25 12:19:56;;;;;;;1.90;0.40;;;;;;;;;;5079686;28;20047;-67
2022/05/25 12:22:28;;;;;;;0.50;0.50;;;;;;;;;;5077317;28;20027;-68
2022/05/25 12:24:57;;;;;;;0.60;0.60;;;;;;;;;;5079021;28;20129;-68
2022/05/25 12:27:31;;;;;;;1.65;0.52;;;;;;;;;;5079102;28;20040;-67
2022/05/25 12:30:04;;;;;;;0.50;0.50;;;;;;;;;;5079600;28;20150;-68
2022/05/25 12:32:29;;;;;;;1.02;0.52;;;;;;;;;;5077091;28;20040;-68
2022/05/25 12:34:55;;;;;;;0.88;0.57;;;;;;;;;;5079854;28;20036;-68
2022/05/25 12:37:43;;;;;;;0.40;0.40;;;;;;;;;;5078460;28;20040;-68
2022/05/25 12:40:12;;;;;;;0.65;0.60;;;;;;;;;;5073457;28;20143;-68
2022/05/25 12:42:47;;;;;;;0.68;0.45;;;;;;;;;;5076794;28;20036;-68
2022/05/25 12:48:58;;;;;;;1.92;0.70;;;;;;;;;;5076952;28;20051;-68
2022/05/25 12:51:44;;;;;;;0.63;0.50;;;;;;;;;;5078321;28;20137;-68
2022/05/25 12:54:23;;;;;;;1.42;0.63;;;;;;;;;;5079920;28;20499;-68
2022/05/25 12:56:51;;;;;;;1.20;0.60;;;;;;;;;;5079785;28;20032;-68
2022/05/25 12:59:38;;;;;;;2.72;0.60;;;;;;;;;;5083739;28;20047;-69
2022/05/25 13:02:21;;;;;;;0.60;0.60;;;;;;;;;;5082365;28;20100;-69
2022/05/25 13:04:48;;;;;;;0.77;0.60;;;;;;;;;;5083508;28;20051;-72
2022/05/25 13:07:46;;;;;;;0.45;0.45;;;;;;;;;;5083286;28;20034;-71
2022/05/25 13:10:41;;;;;;;0.95;0.43;;;;;;;;;;5028956;28;20052;-70
2022/05/25 13:13:38;;;;;;;0.90;0.60;;;;;;;;;;5083432;28;20123;-71
2022/05/25 13:16:04;;;;;;;1.25;0.50;;;;;;;;;;5083090;28;20142;-70
2022/05/25 13:18:50;;;;;;;1.77;0.80;;;;;;;;;;5083513;28;20059;-68
2022/05/25 13:21:37;;;;;;;1.45;0.52;;;;;;;;;;5083686;28;20067;-68
2022/05/25 13:24:08;;;;;;;2.03;0.50;;;;;;;;;;5084140;28;20086;-69
2022/05/25 13:27:06;;;;;;;1.05;0.43;;;;;;;;;;5083338;28;20043;-69
2022/05/25 13:29:47;;;;;;;0.40;0.40;;;;;;;;;;5084064;28;20044;-69
2022/05/25 13:32:21;;;;;;;0.50;0.50;;;;;;;;;;5083043;28;20024;-69
2022/05/25 13:34:47;;;;;;;1.10;0.50;;;;;;;;;;5084389;28;20504;-68
2022/05/25 13:37:14;;;;;;;0.93;0.50;;;;;;;;;;5081841;28;20032;-72
2022/05/25 13:39:41;;;;;;;0.70;0.55;;;;;;;;;;5083091;28;20064;-69
2022/05/25 13:42:12;;;;;;;2.92;0.50;;;;;;;;;;5082956;28;20411;-69
2022/05/25 13:44:46;;;;;;;0.57;0.57;;;;;;;;;;5083703;28;20042;-69
2022/05/25 13:47:37;;;;;;;4.28;0.68;;;;;;;;;;5083740;28;20165;-69
2022/05/25 13:50:03;;;;;;;2.20;0.50;;;;;;;;;;5047753;28;20063;-68
2022/05/25 13:52:35;;;;;;;1.75;0.60;;;;;;;;;;5083328;28;20036;-68
2022/05/25 13:55:30;;;;;;;0.38;0.38;;;;;;;;;;5083379;28;20042;-68
2022/05/25 13:58:01;;;;;;;0.60;0.55;;;;;;;;;;5082893;28;20447;-68
2022/05/25 14:00:26;;;;;;;0.50;0.50;;;;;;;;;;5080801;28;20036;-68
2022/05/25 14:02:56;;;;;;;2.63;0.68;;;;;;;;;;5082021;28;20051;-68
2022/05/25 14:05:25;;;;;;;2.55;0.80;;;;;;;;;;5082200;28;20071;-68
2022/05/25 14:07:52;;;;;;;0.95;0.65;;;;;;;;;;5081025;28;20028;-68
2022/05/25 14:13:27;;;;;;;3.80;0.80;;;;;;;;;;5081020;28;20039;-68
2022/05/25 14:16:23;;;;;;;1.63;0.80;;;;;;;;;;5081385;28;20382;-68
2022/05/25 14:19:01;;;;;;;2.33;0.47;;;;;;;;;;5081073;28;20032;-68
2022/05/25 14:21:35;;;;;;;0.50;0.50;;;;;;;;;;5074875;28;20041;-67
2022/05/25 14:24:11;;;;;;;3.50;0.60;;;;;;;;;;5079595;28;20100;-68
2022/05/25 14:26:42;;;;;;;1.30;0.60;;;;;;;;;;5079753;28;20043;-68
2022/05/25 14:29:12;;;;;;;1.35;0.50;;;;;;;;;;5080284;28;20044;-67
2022/05/25 14:31:47;;;;;;;1.67;0.55;;;;;;;;;;5079641;28;20043;-68
2022/05/25 14:34:15;;;;;;;0.93;0.50;;;;;;;;;;5079631;28;20039;-68
2022/05/25 14:36:44;;;;;;;1.10;0.60;;;;;;;;;;5079730;28;20069;-68
2022/05/25 14:39:15;;;;;;;1.85;0.60;;;;;;;;;;5082421;28;20040;-67
2022/05/25 14:41:52;;;;;;;0.63;0.50;;;;;;;;;;5080188;28;20040;-68
2022/05/25 14:44:38;;;;;;;1.20;0.80;;;;;;;;;;5058404;28;20074;-68
2022/05/25 14:47:11;;;;;;;0.88;0.85;;;;;;;;;;5081679;28;20047;-69
2022/05/25 14:49:36;;;;;;;2.60;0.77;;;;;;;;;;5082138;28;20036;-68
2022/05/25 14:52:08;;;;;;;0.65;0.65;;;;;;;;;;5080276;28;20035;-67
2022/05/25 14:54:34;;;;;;;0.80;0.80;;;;;;;;;;5080015;28;20032;-67
2022/05/25 14:57:02;;;;;;;0.60;0.60;;;;;;;;;;5081064;28;20067;-69
2022/05/25 14:59:31;;;;;;;2.20;0.70;;;;;;;;;;5062489;28;20528;-69
2022/05/25 15:01:59;;;;;;;2.20;2.00;;;;;;;;;;5080785;28;20067;-69
2022/05/25 15:04:39;;;;;;;3.80;0.73;;;;;;;;;;5080209;28;20060;-68
2022/05/25 15:07:05;;;;;;;0.75;0.50;;;;;;;;;;5080655;28;20477;-69
2022/05/25 15:09:41;;;;;;;0.63;0.63;;;;;;;;;;5082119;28;20140;-71
2022/05/25 15:12:21;;;;;;;0.40;0.40;;;;;;;;;;5078240;28;20036;-67
2022/05/25 15:18:30;;;;;;;2.10;0.70;;;;;;;;;;5080567;28;20127;-68
2022/05/25 15:21:30;;;;;;;2.00;0.88;;;;;;;;;;5080793;28;20051;-67
2022/05/25 15:24:13;;;;;;;0.70;0.50;;;;;;;;;;5022956;28;20048;-69
2022/05/25 15:26:55;;;;;;;1.67;0.50;;;;;;;;;;5081562;28;20051;-67
2022/05/25 15:29:34;;;;;;;2.65;0.60;;;;;;;;;;5080445;28;20385;-67
2022/05/25 15:32:05;;;;;;;0.80;0.70;;;;;;;;;;5080691;28;20035;-67
2022/05/25 15:34:31;;;;;;;1.67;0.60;;;;;;;;;;5081477;28;20070;-68
2022/05/25 15:36:56;;;;;;;1.30;0.68;;;;;;;;;;5081103;28;20063;-67
2022/05/25 15:39:22;;;;;;;2.50;0.50;;;;;;;;;;5080135;28;20038;-67
2022/05/25 15:41:48;;;;;;;1.52;0.60;;;;;;;;;;5079711;28;20044;-68
2022/05/25 15:44:14;;;;;;;1.92;0.60;;;;;;;;;;5081687;28;20048;-67
2022/05/25 15:46:44;;;;;;;1.58;0.60;;;;;;;;;;5081632;28;20051;-68
2022/05/25 15:49:14;;;;;;;2.30;0.70;;;;;;;;;;5081333;28;20079;-68